KTLH/TLH METAR and TAF weather

Enter ICAO airport designator
Station Type Date Time Source
KTLH METAR 2019/09/21 20:53 UTC NOAA

KTLH 212053Z 07007KT 10SM SCT065 31/16 A3012 RMK AO2 SLP198 T03110161 56024


Station Type Date Time Source
KTLH Decoded METAR 2019/09/21 20:53 UTC NOAA

TALLAHASSEE REGIONAL AIRPORT , FL, United States (KTLH) 30-24N 84-21W 16M
Sep 21, 2019 - 04:53 PM EDT / 2019.09.21 2053 UTC
Wind: from the ENE (070 degrees) at 8 MPH (7 KT):0
Visibility: 10 mile(s):0
Sky conditions: partly cloudy
Temperature: 88.0 F (31.1 C)
Dew Point: 61.0 F (16.1 C)
Relative Humidity: 40%
Pressure (altimeter): 30.12 in. Hg (1019 hPa)
Pressure tendency: 0.07 inches (2.4 hPa) lower than three hours ago
ob: KTLH 212053Z 07007KT 10SM SCT065 31/16 A3012 RMK AO2 SLP198 T03110161 56024
cycle: 21

Station Type Date Time Source
KTLH TAF 2019/09/21 18:36 UTC NOAA

TAF KTLH 211734Z 2118/2218 08010G15KT P6SM SCT050
FM220000 08005KT P6SM FEW030
FM221500 09007KT P6SM FEW050

Example: see airport list